sensor_id;sensor_type;location;lat;lon;timestamp;pressure;altitude;pressure_sealevel;temperature;humidity
35694;BME280;21812;55.536;37.664;2023-02-18T08:48:38;99132.19;;;-2.92;79.25
35694;BME280;21812;55.536;37.664;2023-02-18T08:51:19;99115.66;;;0.31;65.80
35694;BME280;21812;55.536;37.664;2023-02-18T08:53:45;99089.63;;;2.76;57.72
35694;BME280;21812;55.536;37.664;2023-02-18T08:56:12;99087.75;;;5.42;58.24
35694;BME280;21812;55.536;37.664;2023-02-18T08:58:39;99086.25;;;7.16;45.01
35694;BME280;21812;55.536;37.664;2023-02-18T09:01:08;99047.63;;;6.83;47.30
35694;BME280;21812;55.536;37.664;2023-02-18T09:03:34;99068.06;;;8.00;46.89
35694;BME280;21812;55.536;37.664;2023-02-18T09:06:00;99060.47;;;7.61;46.22
35694;BME280;21812;55.536;37.664;2023-02-18T09:08:27;99053.84;;;8.58;45.24
35694;BME280;21812;55.536;37.664;2023-02-18T09:10:55;99054.00;;;9.13;42.25
35694;BME280;21812;55.536;37.664;2023-02-18T09:13:21;99051.09;;;9.49;41.01
35694;BME280;21812;55.536;37.664;2023-02-18T09:18:22;99044.69;;;10.05;40.41
35694;BME280;21812;55.536;37.664;2023-02-18T09:20:48;99034.00;;;9.98;39.30
35694;BME280;21812;55.536;37.664;2023-02-18T09:23:14;99025.38;;;10.10;39.13
35694;BME280;21812;55.536;37.664;2023-02-18T09:25:40;99007.72;;;10.75;37.43
35694;BME280;21812;55.536;37.664;2023-02-18T09:28:06;99011.41;;;10.88;34.72
35694;BME280;21812;55.536;37.664;2023-02-18T09:30:31;99000.88;;;11.06;35.54
35694;BME280;21812;55.536;37.664;2023-02-18T09:32:57;98984.66;;;10.94;36.03
35694;BME280;21812;55.536;37.664;2023-02-18T09:35:22;98986.50;;;11.46;35.87
35694;BME280;21812;55.536;37.664;2023-02-18T09:37:48;98968.91;;;11.31;34.99
35694;BME280;21812;55.536;37.664;2023-02-18T09:40:24;98947.72;;;11.68;33.76
35694;BME280;21812;55.536;37.664;2023-02-18T09:42:51;98970.31;;;11.72;32.22
35694;BME280;21812;55.536;37.664;2023-02-18T09:45:19;98966.78;;;11.40;30.56
35694;BME280;21812;55.536;37.664;2023-02-18T09:47:46;98963.25;;;11.08;34.52
35694;BME280;21812;55.536;37.664;2023-02-18T09:50:21;98930.47;;;10.81;32.12
35694;BME280;21812;55.536;37.664;2023-02-18T09:52:49;98947.16;;;11.60;33.25
35694;BME280;21812;55.536;37.664;2023-02-18T09:55:21;98946.97;;;11.86;33.83
35694;BME280;21812;55.536;37.664;2023-02-18T09:57:51;98911.56;;;11.59;30.55
35694;BME280;21812;55.536;37.664;2023-02-18T10:00:22;98936.38;;;11.41;32.31
35694;BME280;21812;55.536;37.664;2023-02-18T10:03:16;98918.88;;;11.00;33.41
35694;BME280;21812;55.536;37.664;2023-02-18T10:08:23;98866.97;;;10.04;37.38
35694;BME280;21812;55.536;37.664;2023-02-18T10:10:50;98913.72;;;11.12;33.92
35694;BME280;21812;55.536;37.664;2023-02-18T10:13:22;98868.16;;;11.64;32.38
35694;BME280;21812;55.536;37.664;2023-02-18T10:15:49;98889.41;;;11.52;31.79
35694;BME280;21812;55.536;37.664;2023-02-18T10:18:39;98896.75;;;12.13;33.36
35694;BME280;21812;55.536;37.664;2023-02-18T10:21:10;98860.31;;;11.87;34.03
35694;BME280;21812;55.536;37.664;2023-02-18T10:23:39;98881.41;;;13.13;32.42
35694;BME280;21812;55.536;37.664;2023-02-18T10:26:10;98854.53;;;12.71;31.05
35694;BME280;21812;55.536;37.664;2023-02-18T10:28:37;98866.88;;;12.35;29.77
35694;BME280;21812;55.536;37.664;2023-02-18T10:31:08;98842.56;;;13.34;32.06
35694;BME280;21812;55.536;37.664;2023-02-18T10:44:16;98843.50;;;14.81;30.22
35694;BME280;21812;55.536;37.664;2023-02-18T10:49:47;98807.03;;;15.48;26.43
35694;BME280;21812;55.536;37.664;2023-02-18T10:52:17;98817.69;;;16.33;27.53
35694;BME280;21812;55.536;37.664;2023-02-18T10:57:21;98815.22;;;17.84;25.46
35694;BME280;21812;55.536;37.664;2023-02-18T10:59:55;98768.28;;;17.90;24.67
35694;BME280;21812;55.536;37.664;2023-02-18T11:02:27;98780.47;;;18.61;23.89
35694;BME280;21812;55.536;37.664;2023-02-18T11:04:58;98809.53;;;18.91;24.43
35694;BME280;21812;55.536;37.664;2023-02-18T11:07:30;98787.94;;;19.27;22.80
35694;BME280;21812;55.536;37.664;2023-02-18T11:10:00;98802.50;;;18.27;21.66
35694;BME280;21812;55.536;37.664;2023-02-18T11:12:32;98801.84;;;18.05;23.19
35694;BME280;21812;55.536;37.664;2023-02-18T11:17:31;98799.22;;;17.45;24.88
35694;BME280;21812;55.536;37.664;2023-02-18T11:20:04;98777.69;;;15.30;27.65
35694;BME280;21812;55.536;37.664;2023-02-18T11:22:43;98805.84;;;14.29;27.38
35694;BME280;21812;55.536;37.664;2023-02-18T11:25:26;98798.31;;;13.55;30.75
35694;BME280;21812;55.536;37.664;2023-02-18T11:27:56;98805.13;;;13.27;27.83
35694;BME280;21812;55.536;37.664;2023-02-18T11:33:02;98787.78;;;12.02;31.02
35694;BME280;21812;55.536;37.664;2023-02-18T11:35:31;98756.69;;;12.01;31.99
35694;BME280;21812;55.536;37.664;2023-02-18T11:38:00;98783.16;;;13.96;35.25
35694;BME280;21812;55.536;37.664;2023-02-18T11:40:33;98780.72;;;14.59;30.45
35694;BME280;21812;55.536;37.664;2023-02-18T11:43:27;98767.53;;;13.81;29.26
35694;BME280;21812;55.536;37.664;2023-02-18T11:46:18;98714.72;;;12.93;30.27
35694;BME280;21812;55.536;37.664;2023-02-18T11:48:45;98764.50;;;13.66;29.90
35694;BME280;21812;55.536;37.664;2023-02-18T11:51:21;98759.53;;;14.22;28.81
35694;BME280;21812;55.536;37.664;2023-02-18T11:54:09;98736.97;;;13.47;33.33
35694;BME280;21812;55.536;37.664;2023-02-18T11:57:01;98740.38;;;14.18;33.67
35694;BME280;21812;55.536;37.664;2023-02-18T11:59:29;98718.78;;;13.49;31.71
35694;BME280;21812;55.536;37.664;2023-02-18T12:04:53;98745.47;;;15.01;38.11
35694;BME280;21812;55.536;37.664;2023-02-18T12:07:23;98709.66;;;14.66;30.72
35694;BME280;21812;55.536;37.664;2023-02-18T12:09:55;98728.72;;;14.24;28.03
35694;BME280;21812;55.536;37.664;2023-02-18T12:12:29;98735.09;;;13.83;27.83
35694;BME280;21812;55.536;37.664;2023-02-18T12:14:56;98736.34;;;13.21;30.02
35694;BME280;21812;55.536;37.664;2023-02-18T12:34:52;98719.34;;;13.27;36.78
35694;BME280;21812;55.536;37.664;2023-02-18T12:45:39;98717.59;;;12.79;36.98
35694;BME280;21812;55.536;37.664;2023-02-18T12:48:51;98703.72;;;12.70;35.77
35694;BME280;21812;55.536;37.664;2023-02-18T12:59:33;98689.31;;;12.11;32.40
35694;BME280;21812;55.536;37.664;2023-02-18T13:05:09;98688.03;;;12.13;31.37
35694;BME280;21812;55.536;37.664;2023-02-18T13:13:18;98620.66;;;11.68;36.31
35694;BME280;21812;55.536;37.664;2023-02-18T13:15:59;98679.84;;;11.53;34.49
35694;BME280;21812;55.536;37.664;2023-02-18T13:18:30;98670.50;;;11.62;38.62
35694;BME280;21812;55.536;37.664;2023-02-18T13:21:07;98636.38;;;11.21;35.78
35694;BME280;21812;55.536;37.664;2023-02-18T13:23:48;98642.50;;;11.21;32.76
35694;BME280;21812;55.536;37.664;2023-02-18T13:26:17;98635.41;;;9.94;31.02
35694;BME280;21812;55.536;37.664;2023-02-18T13:31:32;98660.59;;;9.98;34.12
35694;BME280;21812;55.536;37.664;2023-02-18T13:34:07;98625.03;;;9.66;36.97
35694;BME280;21812;55.536;37.664;2023-02-18T13:36:49;98654.63;;;10.48;36.21
35694;BME280;21812;55.536;37.664;2023-02-18T13:39:20;98618.06;;;10.10;34.47
35694;BME280;21812;55.536;37.664;2023-02-18T13:41:49;98615.72;;;10.34;35.50
35694;BME280;21812;55.536;37.664;2023-02-18T13:46:54;98601.13;;;10.30;36.68
35694;BME280;21812;55.536;37.664;2023-02-18T13:49:33;98637.22;;;10.39;34.90
35694;BME280;21812;55.536;37.664;2023-02-18T13:52:01;98621.25;;;9.94;35.85
35694;BME280;21812;55.536;37.664;2023-02-18T13:54:30;98625.03;;;9.66;37.81
35694;BME280;21812;55.536;37.664;2023-02-18T13:57:12;98642.94;;;9.46;33.56
35694;BME280;21812;55.536;37.664;2023-02-18T13:59:49;98638.69;;;9.25;40.26
35694;BME280;21812;55.536;37.664;2023-02-18T14:09:59;98616.53;;;10.28;40.02
35694;BME280;21812;55.536;37.664;2023-02-18T14:25:56;98538.94;;;10.36;32.17
35694;BME280;21812;55.536;37.664;2023-02-18T14:31:32;98607.94;;;10.57;35.74
35694;BME280;21812;55.536;37.664;2023-02-18T14:50:50;98590.28;;;7.88;35.90
35694;BME280;21812;55.536;37.664;2023-02-18T14:53:22;98583.44;;;8.40;39.42
35694;BME280;21812;55.536;37.664;2023-02-18T14:55:57;98592.44;;;8.92;38.84
35694;BME280;21812;55.536;37.664;2023-02-18T14:58:38;98539.09;;;9.26;39.75
35694;BME280;21812;55.536;37.664;2023-02-18T15:03:43;98567.06;;;9.93;38.91
35694;BME280;21812;55.536;37.664;2023-02-18T15:08:52;98570.56;;;8.50;39.46
35694;BME280;21812;55.536;37.664;2023-02-18T15:11:20;98535.91;;;7.90;39.39
35694;BME280;21812;55.536;37.664;2023-02-18T15:13:47;98558.47;;;8.68;38.71
35694;BME280;21812;55.536;37.664;2023-02-18T15:18:54;98505.63;;;7.78;40.42
35694;BME280;21812;55.536;37.664;2023-02-18T15:21:45;98555.63;;;8.76;33.42
35694;BME280;21812;55.536;37.664;2023-02-18T15:24:23;98553.09;;;8.94;37.51
35694;BME280;21812;55.536;37.664;2023-02-18T15:26:51;98546.50;;;9.24;37.61
35694;BME280;21812;55.536;37.664;2023-02-18T15:29:33;98545.78;;;8.70;37.00
35694;BME280;21812;55.536;37.664;2023-02-18T15:31:59;98542.94;;;8.45;38.89
35694;BME280;21812;55.536;37.664;2023-02-18T15:36:57;98539.00;;;8.20;40.79
35694;BME280;21812;55.536;37.664;2023-02-18T15:39:23;98541.25;;;8.37;38.87
35694;BME280;21812;55.536;37.664;2023-02-18T15:41:53;98536.56;;;8.26;37.71
35694;BME280;21812;55.536;37.664;2023-02-18T15:44:23;98536.19;;;8.55;39.67
35694;BME280;21812;55.536;37.664;2023-02-18T15:46:50;98525.88;;;7.99;39.71
35694;BME280;21812;55.536;37.664;2023-02-18T15:49:19;98493.34;;;7.70;38.75
35694;BME280;21812;55.536;37.664;2023-02-18T15:51:48;98494.63;;;8.48;40.17
35694;BME280;21812;55.536;37.664;2023-02-18T15:54:19;98482.53;;;7.85;32.87
35694;BME280;21812;55.536;37.664;2023-02-18T15:56:50;98521.69;;;7.50;35.13
35694;BME280;21812;55.536;37.664;2023-02-18T16:01:56;98472.16;;;7.29;41.90
35694;BME280;21812;55.536;37.664;2023-02-18T16:04:24;98500.28;;;7.64;37.37
35694;BME280;21812;55.536;37.664;2023-02-18T16:06:54;98503.09;;;7.50;37.09
35694;BME280;21812;55.536;37.664;2023-02-18T16:09:31;98474.78;;;7.15;40.99
35694;BME280;21812;55.536;37.664;2023-02-18T16:11:59;98501.38;;;8.03;40.91
35694;BME280;21812;55.536;37.664;2023-02-18T16:14:48;98455.34;;;8.10;40.87
35694;BME280;21812;55.536;37.664;2023-02-18T16:17:17;98480.41;;;9.00;42.00
35694;BME280;21812;55.536;37.664;2023-02-18T16:22:43;98478.72;;;7.26;38.41
35694;BME280;21812;55.536;37.664;2023-02-18T16:28:09;98478.97;;;7.51;39.11
35694;BME280;21812;55.536;37.664;2023-02-18T16:30:36;98485.63;;;7.27;35.22
35694;BME280;21812;55.536;37.664;2023-02-18T16:33:02;98486.88;;;6.83;39.06
35694;BME280;21812;55.536;37.664;2023-02-18T16:35:29;98483.88;;;6.58;43.63
35694;BME280;21812;55.536;37.664;2023-02-18T16:37:55;98464.72;;;6.62;42.82
35694;BME280;21812;55.536;37.664;2023-02-18T16:40:36;98405.66;;;6.12;41.66
35694;BME280;21812;55.536;37.664;2023-02-18T16:43:14;98440.91;;;6.06;43.57
35694;BME280;21812;55.536;37.664;2023-02-18T16:45:42;98447.47;;;5.88;45.36
35694;BME280;21812;55.536;37.664;2023-02-18T16:48:26;98463.44;;;5.95;37.18
35694;BME280;21812;55.536;37.664;2023-02-18T16:50:52;98461.13;;;5.27;38.82
35694;BME280;21812;55.536;37.664;2023-02-18T16:53:18;98463.81;;;5.92;43.29
35694;BME280;21812;55.536;37.664;2023-02-18T16:55:45;98453.56;;;7.22;41.73
35694;BME280;21812;55.536;37.664;2023-02-18T16:58:10;98437.72;;;7.49;43.18
35694;BME280;21812;55.536;37.664;2023-02-18T17:00:36;98461.88;;;7.05;39.41
35694;BME280;21812;55.536;37.664;2023-02-18T17:03:04;98448.50;;;6.79;45.02
35694;BME280;21812;55.536;37.664;2023-02-18T17:05:32;98383.63;;;6.88;45.17
35694;BME280;21812;55.536;37.664;2023-02-18T17:10:46;98446.31;;;6.54;45.05
35694;BME280;21812;55.536;37.664;2023-02-18T17:13:15;98421.72;;;7.22;44.79
35694;BME280;21812;55.536;37.664;2023-02-18T17:15:41;98429.03;;;7.07;41.92
35694;BME280;21812;55.536;37.664;2023-02-18T17:18:08;98441.72;;;7.24;40.92
35694;BME280;21812;55.536;37.664;2023-02-18T17:20:33;98431.59;;;7.68;38.28
35694;BME280;21812;55.536;37.664;2023-02-18T17:22:59;98432.66;;;6.99;38.48
35694;BME280;21812;55.536;37.664;2023-02-18T17:27:54;98427.59;;;7.11;36.63
35694;BME280;21812;55.536;37.664;2023-02-18T17:30:19;98423.59;;;6.80;36.60
35694;BME280;21812;55.536;37.664;2023-02-18T17:32:45;98430.03;;;6.64;41.01
35694;BME280;21812;55.536;37.664;2023-02-18T17:35:19;98417.88;;;7.38;43.72
35694;BME280;21812;55.536;37.664;2023-02-18T17:37:46;98412.63;;;7.71;39.01
35694;BME280;21812;55.536;37.664;2023-02-18T17:40:21;98415.22;;;7.31;35.38
35694;BME280;21812;55.536;37.664;2023-02-18T17:42:47;98406.66;;;7.42;39.94
35694;BME280;21812;55.536;37.664;2023-02-18T17:45:33;98417.31;;;7.56;37.68
35694;BME280;21812;55.536;37.664;2023-02-18T17:48:00;98406.22;;;6.36;40.51
35694;BME280;21812;55.536;37.664;2023-02-18T17:50:28;98412.41;;;6.15;40.88
35694;BME280;21812;55.536;37.664;2023-02-18T17:52:54;98405.16;;;7.20;51.50
35694;BME280;21812;55.536;37.664;2023-02-18T17:55:23;98400.06;;;8.52;48.16
35694;BME280;21812;55.536;37.664;2023-02-18T17:57:57;98407.97;;;8.72;40.67
35694;BME280;21812;55.536;37.664;2023-02-18T18:00:32;98405.22;;;8.98;40.55
35694;BME280;21812;55.536;37.664;2023-02-18T18:02:59;98389.63;;;9.09;43.62
35694;BME280;21812;55.536;37.664;2023-02-18T18:05:30;98397.56;;;8.70;38.13
35694;BME280;21812;55.536;37.664;2023-02-18T18:07:57;98382.84;;;9.13;43.12
35694;BME280;21812;55.536;37.664;2023-02-18T18:10:24;98398.94;;;9.25;40.63
35694;BME280;21812;55.536;37.664;2023-02-18T18:12:55;98385.69;;;8.73;38.54
35694;BME280;21812;55.536;37.664;2023-02-18T18:15:25;98354.75;;;8.00;36.67
35694;BME280;21812;55.536;37.664;2023-02-18T18:17:52;98388.16;;;8.68;44.96
35694;BME280;21812;55.536;37.664;2023-02-18T18:20:19;98383.28;;;9.42;42.51
35694;BME280;21812;55.536;37.664;2023-02-18T18:22:46;98383.97;;;8.85;34.40
35694;BME280;21812;55.536;37.664;2023-02-18T18:27:48;98386.09;;;8.70;41.41
35694;BME280;21812;55.536;37.664;2023-02-18T18:30:18;98383.03;;;9.11;38.37
35694;BME280;21812;55.536;37.664;2023-02-18T18:32:44;98378.00;;;8.51;42.90
35694;BME280;21812;55.536;37.664;2023-02-18T18:35:34;98374.63;;;8.76;38.82
35694;BME280;21812;55.536;37.664;2023-02-18T18:38:00;98376.78;;;8.20;40.41
35694;BME280;21812;55.536;37.664;2023-02-18T18:40:29;98383.56;;;7.50;45.57
35694;BME280;21812;55.536;37.664;2023-02-18T18:42:57;98375.81;;;7.81;41.03
35694;BME280;21812;55.536;37.664;2023-02-18T18:45:36;98345.50;;;7.16;38.56
35694;BME280;21812;55.536;37.664;2023-02-18T18:48:04;98383.38;;;7.71;42.81
35694;BME280;21812;55.536;37.664;2023-02-18T18:50:29;98370.72;;;7.60;44.07
35694;BME280;21812;55.536;37.664;2023-02-18T18:52:55;98373.53;;;7.32;41.64
35694;BME280;21812;55.536;37.664;2023-02-18T18:55:35;98371.25;;;7.15;47.84
35694;BME280;21812;55.536;37.664;2023-02-18T18:58:02;98359.19;;;7.13;43.85
35694;BME280;21812;55.536;37.664;2023-02-18T19:00:41;98326.97;;;7.56;44.94
35694;BME280;21812;55.536;37.664;2023-02-18T19:03:12;98358.81;;;8.02;44.37
35694;BME280;21812;55.536;37.664;2023-02-18T19:05:40;98325.75;;;7.72;34.05
35694;BME280;21812;55.536;37.664;2023-02-18T19:08:08;98351.06;;;7.34;36.91
35694;BME280;21812;55.536;37.664;2023-02-18T19:10:36;98310.97;;;8.09;41.63
35694;BME280;21812;55.536;37.664;2023-02-18T19:13:03;98340.84;;;8.70;39.73
35694;BME280;21812;55.536;37.664;2023-02-18T19:15:29;98344.41;;;8.50;37.05
35694;BME280;21812;55.536;37.664;2023-02-18T19:17:55;98337.50;;;8.36;41.93
35694;BME280;21812;55.536;37.664;2023-02-18T19:20:24;98309.78;;;7.85;42.93
35694;BME280;21812;55.536;37.664;2023-02-18T19:22:50;98342.91;;;7.76;40.48
35694;BME280;21812;55.536;37.664;2023-02-18T19:25:17;98345.56;;;7.62;41.73
35694;BME280;21812;55.536;37.664;2023-02-18T19:27:44;98332.44;;;8.73;43.02
35694;BME280;21812;55.536;37.664;2023-02-18T19:30:21;98306.63;;;8.80;38.72
35694;BME280;21812;55.536;37.664;2023-02-18T19:32:54;98318.66;;;8.31;41.95
35694;BME280;21812;55.536;37.664;2023-02-18T19:35:20;98331.03;;;7.85;38.05
35694;BME280;21812;55.536;37.664;2023-02-18T19:37:46;98336.16;;;7.53;44.56
35694;BME280;21812;55.536;37.664;2023-02-18T19:40:20;98303.44;;;7.59;35.33
35694;BME280;21812;55.536;37.664;2023-02-18T19:42:47;98327.31;;;6.99;37.27
35694;BME280;21812;55.536;37.664;2023-02-18T19:45:13;98329.63;;;6.54;37.55
35694;BME280;21812;55.536;37.664;2023-02-18T19:47:39;98330.47;;;6.68;42.83
35694;BME280;21812;55.536;37.664;2023-02-18T19:50:07;98328.63;;;7.50;40.78
35694;BME280;21812;55.536;37.664;2023-02-18T19:52:32;98315.50;;;7.09;37.14
35694;BME280;21812;55.536;37.664;2023-02-18T19:54:58;98322.34;;;6.28;39.28
35694;BME280;21812;55.536;37.664;2023-02-18T19:57:24;98321.44;;;5.79;38.00
35694;BME280;21812;55.536;37.664;2023-02-18T19:59:50;98317.75;;;5.24;40.73
35694;BME280;21812;55.536;37.664;2023-02-18T20:02:20;98290.78;;;4.70;47.07
35694;BME280;21812;55.536;37.664;2023-02-18T20:04:46;98325.53;;;4.67;43.92
35694;BME280;21812;55.536;37.664;2023-02-18T20:07:12;98324.56;;;4.09;46.45
35694;BME280;21812;55.536;37.664;2023-02-18T20:09:38;98321.13;;;4.23;52.93
35694;BME280;21812;55.536;37.664;2023-02-18T20:12:05;98325.78;;;4.73;54.11
35694;BME280;21812;55.536;37.664;2023-02-18T20:14:33;98321.72;;;5.13;54.83
35694;BME280;21812;55.536;37.664;2023-02-18T20:16:58;98317.34;;;5.48;46.01
35694;BME280;21812;55.536;37.664;2023-02-18T20:19:26;98299.63;;;5.77;50.12
35694;BME280;21812;55.536;37.664;2023-02-18T20:21:52;98307.00;;;6.17;50.26
35694;BME280;21812;55.536;37.664;2023-02-18T20:24:21;98306.44;;;6.21;49.82
35694;BME280;21812;55.536;37.664;2023-02-18T20:26:46;98304.63;;;5.16;40.14
35694;BME280;21812;55.536;37.664;2023-02-18T20:29:13;98309.44;;;5.05;39.47
35694;BME280;21812;55.536;37.664;2023-02-18T20:31:39;98293.06;;;4.95;41.71
35694;BME280;21812;55.536;37.664;2023-02-18T20:34:07;98301.19;;;4.94;49.30
35694;BME280;21812;55.536;37.664;2023-02-18T20:36:34;98300.03;;;4.45;48.33
35694;BME280;21812;55.536;37.664;2023-02-18T20:39:00;98302.97;;;3.23;42.49
35694;BME280;21812;55.536;37.664;2023-02-18T20:41:25;98298.50;;;2.54;49.20
35694;BME280;21812;55.536;37.664;2023-02-18T20:43:57;98304.84;;;2.91;49.22
35694;BME280;21812;55.536;37.664;2023-02-18T20:46:23;98301.88;;;3.55;47.93
35694;BME280;21812;55.536;37.664;2023-02-18T20:48:49;98295.06;;;4.20;54.40
35694;BME280;21812;55.536;37.664;2023-02-18T20:51:17;98285.56;;;4.26;42.85
35694;BME280;21812;55.536;37.664;2023-02-18T20:53:43;98285.78;;;3.65;47.74
35694;BME280;21812;55.536;37.664;2023-02-18T20:56:10;98297.38;;;4.45;46.31
35694;BME280;21812;55.536;37.664;2023-02-18T20:58:35;98289.53;;;4.00;40.95
35694;BME280;21812;55.536;37.664;2023-02-18T21:01:03;98252.31;;;3.12;42.73
35694;BME280;21812;55.536;37.664;2023-02-18T21:03:30;98288.88;;;3.83;50.09
35694;BME280;21812;55.536;37.664;2023-02-18T21:05:58;98285.28;;;4.72;47.01
35694;BME280;21812;55.536;37.664;2023-02-18T21:08:25;98283.47;;;4.73;42.89
35694;BME280;21812;55.536;37.664;2023-02-18T21:10:52;98281.91;;;3.38;41.21
35694;BME280;21812;55.536;37.664;2023-02-18T21:13:24;98279.97;;;3.69;51.97
35694;BME280;21812;55.536;37.664;2023-02-18T21:15:50;98284.59;;;3.97;45.50
35694;BME280;21812;55.536;37.664;2023-02-18T21:18:16;98278.22;;;3.91;49.32
35694;BME280;21812;55.536;37.664;2023-02-18T21:20:43;98273.19;;;3.37;42.99
35694;BME280;21812;55.536;37.664;2023-02-18T21:23:09;98277.50;;;3.68;52.60
35694;BME280;21812;55.536;37.664;2023-02-18T21:25:36;98264.69;;;4.46;45.00
35694;BME280;21812;55.536;37.664;2023-02-18T21:28:02;98268.94;;;3.96;42.66
35694;BME280;21812;55.536;37.664;2023-02-18T21:30:31;98272.03;;;3.17;44.26
35694;BME280;21812;55.536;37.664;2023-02-18T21:32:57;98262.56;;;3.07;43.25
35694;BME280;21812;55.536;37.664;2023-02-18T21:35:24;98265.13;;;2.92;44.44
35694;BME280;21812;55.536;37.664;2023-02-18T21:37:51;98266.41;;;3.20;52.05
35694;BME280;21812;55.536;37.664;2023-02-18T21:40:17;98265.63;;;3.34;45.15
35694;BME280;21812;55.536;37.664;2023-02-18T21:42:43;98264.09;;;3.84;50.14
35694;BME280;21812;55.536;37.664;2023-02-18T21:45:09;98246.38;;;4.29;50.29
35694;BME280;21812;55.536;37.664;2023-02-18T21:47:36;98254.09;;;5.60;47.93
35694;BME280;21812;55.536;37.664;2023-02-18T21:50:03;98243.25;;;5.27;39.24
35694;BME280;21812;55.536;37.664;2023-02-18T21:52:29;98250.88;;;4.29;41.84
35694;BME280;21812;55.536;37.664;2023-02-18T21:54:56;98249.09;;;3.55;42.25
35694;BME280;21812;55.536;37.664;2023-02-18T21:57:22;98250.13;;;3.16;44.81
35694;BME280;21812;55.536;37.664;2023-02-18T21:59:49;98252.47;;;3.11;46.51
35694;BME280;21812;55.536;37.664;2023-02-18T22:02:17;98251.88;;;4.13;51.98
35694;BME280;21812;55.536;37.664;2023-02-18T22:04:44;98255.00;;;3.72;45.49
35694;BME280;21812;55.536;37.664;2023-02-18T22:07:09;98254.72;;;3.14;44.23
35694;BME280;21812;55.536;37.664;2023-02-18T22:09:35;98239.53;;;3.39;49.86
35694;BME280;21812;55.536;37.664;2023-02-18T22:12:01;98261.19;;;3.49;43.90
35694;BME280;21812;55.536;37.664;2023-02-18T22:14:27;98247.19;;;3.64;45.18
35694;BME280;21812;55.536;37.664;2023-02-18T22:16:53;98252.09;;;3.97;50.34
35694;BME280;21812;55.536;37.664;2023-02-18T22:19:19;98242.22;;;4.05;48.85
35694;BME280;21812;55.536;37.664;2023-02-18T22:21:45;98231.88;;;3.44;41.46
35694;BME280;21812;55.536;37.664;2023-02-18T22:24:15;98250.28;;;3.82;44.23
35694;BME280;21812;55.536;37.664;2023-02-18T22:26:41;98241.34;;;3.53;41.24
35694;BME280;21812;55.536;37.664;2023-02-18T22:29:11;98254.63;;;4.05;48.49
35694;BME280;21812;55.536;37.664;2023-02-18T22:31:37;98243.06;;;4.21;46.55
35694;BME280;21812;55.536;37.664;2023-02-18T22:34:05;98243.78;;;4.51;41.21
35694;BME280;21812;55.536;37.664;2023-02-18T22:36:31;98233.22;;;4.94;47.46
35694;BME280;21812;55.536;37.664;2023-02-18T22:38:58;98234.97;;;4.87;43.30
35694;BME280;21812;55.536;37.664;2023-02-18T22:41:26;98223.66;;;5.49;42.74
35694;BME280;21812;55.536;37.664;2023-02-18T22:43:58;98185.16;;;5.47;43.11
35694;BME280;21812;55.536;37.664;2023-02-18T22:46:24;98227.94;;;5.79;40.86
35694;BME280;21812;55.536;37.664;2023-02-18T22:48:51;98235.94;;;5.01;40.72
35694;BME280;21812;55.536;37.664;2023-02-18T22:51:24;98233.88;;;3.57;38.99
35694;BME280;21812;55.536;37.664;2023-02-18T22:53:51;98232.16;;;3.49;41.36
35694;BME280;21812;55.536;37.664;2023-02-18T22:56:19;98239.28;;;3.64;41.29
35694;BME280;21812;55.536;37.664;2023-02-18T22:58:46;98235.03;;;3.25;40.48
35694;BME280;21812;55.536;37.664;2023-02-18T23:01:19;98245.63;;;2.56;41.47
35694;BME280;21812;55.536;37.664;2023-02-18T23:03:45;98243.00;;;3.55;49.67
35694;BME280;21812;55.536;37.664;2023-02-18T23:06:10;98238.88;;;4.91;45.43
35694;BME280;21812;55.536;37.664;2023-02-18T23:08:36;98230.31;;;4.89;46.66
35694;BME280;21812;55.536;37.664;2023-02-18T23:11:05;98223.56;;;5.64;41.80
35694;BME280;21812;55.536;37.664;2023-02-18T23:13:31;98237.94;;;4.77;40.94
35694;BME280;21812;55.536;37.664;2023-02-18T23:16:02;98207.34;;;3.06;45.92
35694;BME280;21812;55.536;37.664;2023-02-18T23:18:29;98215.22;;;3.44;44.36
35694;BME280;21812;55.536;37.664;2023-02-18T23:21:00;98195.69;;;4.19;41.17
35694;BME280;21812;55.536;37.664;2023-02-18T23:23:51;98195.91;;;4.24;40.14
35694;BME280;21812;55.536;37.664;2023-02-18T23:26:22;98230.78;;;3.83;40.65
35694;BME280;21812;55.536;37.664;2023-02-18T23:28:49;98225.50;;;3.83;43.45
35694;BME280;21812;55.536;37.664;2023-02-18T23:31:26;98226.38;;;4.20;43.09
35694;BME280;21812;55.536;37.664;2023-02-18T23:33:56;98226.16;;;4.37;42.17
35694;BME280;21812;55.536;37.664;2023-02-18T23:36:24;98195.81;;;4.76;38.66
35694;BME280;21812;55.536;37.664;2023-02-18T23:38:53;98185.00;;;4.70;42.46
35694;BME280;21812;55.536;37.664;2023-02-18T23:41:19;98225.31;;;5.22;39.83
35694;BME280;21812;55.536;37.664;2023-02-18T23:43:45;98222.16;;;5.40;43.71
35694;BME280;21812;55.536;37.664;2023-02-18T23:46:12;98222.03;;;5.48;38.59
35694;BME280;21812;55.536;37.664;2023-02-18T23:48:38;98205.28;;;6.11;43.09
35694;BME280;21812;55.536;37.664;2023-02-18T23:51:06;98210.00;;;6.36;43.38
35694;BME280;21812;55.536;37.664;2023-02-18T23:53:34;98190.13;;;7.13;39.39
35694;BME280;21812;55.536;37.664;2023-02-18T23:56:17;98198.50;;;7.10;39.63
35694;BME280;21812;55.536;37.664;2023-02-18T23:58:48;98162.34;;;7.09;40.32
